sensor_id;sensor_type;location;lat;lon;timestamp;pressure;altitude;pressure_sealevel;temperature;humidity
10978;BME280;5542;48.272;10.794;2023-07-16T00:00:24;95443.66;;;23.42;73.26
10978;BME280;5542;48.272;10.794;2023-07-16T00:02:51;95454.06;;;23.52;72.81
10978;BME280;5542;48.272;10.794;2023-07-16T00:05:18;95459.91;;;23.63;72.04
10978;BME280;5542;48.272;10.794;2023-07-16T00:07:44;95497.06;;;23.69;71.83
10978;BME280;5542;48.272;10.794;2023-07-16T00:10:12;95563.38;;;23.86;71.88
10978;BME280;5542;48.272;10.794;2023-07-16T00:12:39;95621.03;;;23.89;69.08
10978;BME280;5542;48.272;10.794;2023-07-16T00:15:07;95597.81;;;23.84;67.89
10978;BME280;5542;48.272;10.794;2023-07-16T00:17:34;95617.06;;;23.77;67.93
10978;BME280;5542;48.272;10.794;2023-07-16T00:20:01;95608.22;;;23.68;68.60
10978;BME280;5542;48.272;10.794;2023-07-16T00:22:27;95627.66;;;23.65;68.45
10978;BME280;5542;48.272;10.794;2023-07-16T00:24:54;95637.19;;;23.49;69.29
10978;BME280;5542;48.272;10.794;2023-07-16T00:27:22;95632.56;;;23.23;70.28
10978;BME280;5542;48.272;10.794;2023-07-16T00:29:48;95617.53;;;23.14;70.88
10978;BME280;5542;48.272;10.794;2023-07-16T00:32:15;95636.81;;;23.24;69.18
10978;BME280;5542;48.272;10.794;2023-07-16T00:34:41;95658.91;;;23.21;70.03
10978;BME280;5542;48.272;10.794;2023-07-16T00:37:08;95656.09;;;23.27;69.78
10978;BME280;5542;48.272;10.794;2023-07-16T00:39:35;95654.34;;;23.22;69.91
10978;BME280;5542;48.272;10.794;2023-07-16T00:42:01;95649.88;;;23.09;70.59
10978;BME280;5542;48.272;10.794;2023-07-16T00:44:30;95652.69;;;23.04;70.95
10978;BME280;5542;48.272;10.794;2023-07-16T00:46:56;95644.03;;;23.15;71.18
10978;BME280;5542;48.272;10.794;2023-07-16T00:49:23;95663.66;;;23.24;70.33
10978;BME280;5542;48.272;10.794;2023-07-16T00:51:51;95665.25;;;23.34;69.81
10978;BME280;5542;48.272;10.794;2023-07-16T00:54:19;95666.69;;;23.32;70.17
10978;BME280;5542;48.272;10.794;2023-07-16T00:56:46;95662.91;;;23.33;70.23
10978;BME280;5542;48.272;10.794;2023-07-16T00:59:12;95651.47;;;23.18;70.44
10978;BME280;5542;48.272;10.794;2023-07-16T01:01:40;95660.13;;;23.15;70.83
10978;BME280;5542;48.272;10.794;2023-07-16T01:04:07;95660.13;;;23.15;70.60
10978;BME280;5542;48.272;10.794;2023-07-16T01:06:35;95658.91;;;23.21;70.71
10978;BME280;5542;48.272;10.794;2023-07-16T01:09:07;95668.19;;;23.15;70.68
10978;BME280;5542;48.272;10.794;2023-07-16T01:11:34;95671.97;;;23.14;70.89
10978;BME280;5542;48.272;10.794;2023-07-16T01:14:02;95673.28;;;23.25;70.64
10978;BME280;5542;48.272;10.794;2023-07-16T01:16:29;95687.31;;;23.22;71.27
10978;BME280;5542;48.272;10.794;2023-07-16T01:18:57;95684.16;;;23.20;71.31
10978;BME280;5542;48.272;10.794;2023-07-16T01:21:29;95707.97;;;23.13;72.34
10978;BME280;5542;48.272;10.794;2023-07-16T01:24:09;95722.72;;;23.02;72.78
10978;BME280;5542;48.272;10.794;2023-07-16T01:26:57;95711.13;;;22.93;74.18
10978;BME280;5542;48.272;10.794;2023-07-16T01:29:31;95699.63;;;22.70;75.71
10978;BME280;5542;48.272;10.794;2023-07-16T01:31:59;95698.16;;;22.64;77.01
10978;BME280;5542;48.272;10.794;2023-07-16T01:34:28;95699.44;;;22.66;77.29
10978;BME280;5542;48.272;10.794;2023-07-16T01:36:56;95708.66;;;22.52;79.13
10978;BME280;5542;48.272;10.794;2023-07-16T01:39:22;95716.16;;;22.41;79.99
10978;BME280;5542;48.272;10.794;2023-07-16T01:41:49;95722.66;;;22.48;79.77
10978;BME280;5542;48.272;10.794;2023-07-16T01:44:15;95698.84;;;22.47;80.47
10978;BME280;5542;48.272;10.794;2023-07-16T01:46:43;95693.22;;;22.35;81.14
10978;BME280;5542;48.272;10.794;2023-07-16T01:49:10;95704.84;;;22.30;81.69
10978;BME280;5542;48.272;10.794;2023-07-16T01:51:36;95711.50;;;22.33;81.60
10978;BME280;5542;48.272;10.794;2023-07-16T01:54:03;95709.53;;;22.24;82.49
10978;BME280;5542;48.272;10.794;2023-07-16T01:56:30;95715.59;;;22.16;82.68
10978;BME280;5542;48.272;10.794;2023-07-16T01:58:56;95711.94;;;22.12;83.31
10978;BME280;5542;48.272;10.794;2023-07-16T02:01:23;95708.88;;;22.19;82.76
10978;BME280;5542;48.272;10.794;2023-07-16T02:03:51;95712.44;;;22.14;82.77
10978;BME280;5542;48.272;10.794;2023-07-16T02:06:17;95721.25;;;22.29;82.96
10978;BME280;5542;48.272;10.794;2023-07-16T02:08:44;95719.66;;;22.28;82.58
10978;BME280;5542;48.272;10.794;2023-07-16T02:11:10;95717.78;;;22.28;82.64
10978;BME280;5542;48.272;10.794;2023-07-16T02:13:37;95726.97;;;22.36;82.65
10978;BME280;5542;48.272;10.794;2023-07-16T02:16:04;95731.25;;;22.37;82.49
10978;BME280;5542;48.272;10.794;2023-07-16T02:18:31;95742.31;;;22.44;82.53
10978;BME280;5542;48.272;10.794;2023-07-16T02:20:59;95738.72;;;22.48;81.68
10978;BME280;5542;48.272;10.794;2023-07-16T02:23:27;95747.94;;;22.56;81.72
10978;BME280;5542;48.272;10.794;2023-07-16T02:25:54;95750.03;;;22.45;82.25
10978;BME280;5542;48.272;10.794;2023-07-16T02:28:20;95757.97;;;22.28;82.60
10978;BME280;5542;48.272;10.794;2023-07-16T02:30:49;95758.19;;;22.04;84.96
10978;BME280;5542;48.272;10.794;2023-07-16T02:33:16;95740.72;;;21.93;85.36
10978;BME280;5542;48.272;10.794;2023-07-16T02:35:46;95738.88;;;21.80;85.49
10978;BME280;5542;48.272;10.794;2023-07-16T02:38:14;95740.44;;;21.67;86.55
10978;BME280;5542;48.272;10.794;2023-07-16T02:40:42;95746.81;;;21.57;86.11
10978;BME280;5542;48.272;10.794;2023-07-16T02:43:09;95739.97;;;21.37;87.66
10978;BME280;5542;48.272;10.794;2023-07-16T02:45:36;95752.94;;;21.44;87.92
10978;BME280;5542;48.272;10.794;2023-07-16T02:48:04;95765.03;;;21.55;87.37
10978;BME280;5542;48.272;10.794;2023-07-16T02:50:33;95762.06;;;21.70;86.70
10978;BME280;5542;48.272;10.794;2023-07-16T02:53:00;95771.69;;;21.85;85.90
10978;BME280;5542;48.272;10.794;2023-07-16T02:55:28;95772.16;;;22.01;85.01
10978;BME280;5542;48.272;10.794;2023-07-16T02:57:54;95765.59;;;22.07;84.44
10978;BME280;5542;48.272;10.794;2023-07-16T03:00:21;95760.97;;;22.13;84.42
10978;BME280;5542;48.272;10.794;2023-07-16T03:02:48;95762.91;;;22.21;83.99
10978;BME280;5542;48.272;10.794;2023-07-16T03:05:15;95765.78;;;22.24;83.30
10978;BME280;5542;48.272;10.794;2023-07-16T03:07:42;95759.34;;;22.26;83.14
10978;BME280;5542;48.272;10.794;2023-07-16T03:10:09;95775.03;;;22.18;82.55
10978;BME280;5542;48.272;10.794;2023-07-16T03:12:37;95776.50;;;21.97;83.79
10978;BME280;5542;48.272;10.794;2023-07-16T03:15:05;95777.31;;;21.97;84.05
10978;BME280;5542;48.272;10.794;2023-07-16T03:17:31;95784.44;;;22.02;84.00
10978;BME280;5542;48.272;10.794;2023-07-16T03:19:58;95792.81;;;22.14;83.36
10978;BME280;5542;48.272;10.794;2023-07-16T03:22:24;95787.34;;;22.19;82.62
10978;BME280;5542;48.272;10.794;2023-07-16T03:24:51;95802.31;;;22.20;82.86
10978;BME280;5542;48.272;10.794;2023-07-16T03:27:18;95794.16;;;22.26;82.48
10978;BME280;5542;48.272;10.794;2023-07-16T03:29:45;95781.50;;;22.17;82.13
10978;BME280;5542;48.272;10.794;2023-07-16T03:32:12;95788.22;;;22.01;82.84
10978;BME280;5542;48.272;10.794;2023-07-16T03:34:39;95783.56;;;21.93;83.85
10978;BME280;5542;48.272;10.794;2023-07-16T03:37:06;95780.41;;;21.91;84.40
10978;BME280;5542;48.272;10.794;2023-07-16T03:39:32;95771.06;;;21.88;84.52
10978;BME280;5542;48.272;10.794;2023-07-16T03:41:59;95787.84;;;21.94;84.21
10978;BME280;5542;48.272;10.794;2023-07-16T03:44:25;95786.66;;;21.86;84.16
10978;BME280;5542;48.272;10.794;2023-07-16T03:46:53;95784.56;;;21.83;84.56
10978;BME280;5542;48.272;10.794;2023-07-16T03:49:20;95796.56;;;21.86;84.70
10978;BME280;5542;48.272;10.794;2023-07-16T03:51:46;95806.38;;;21.90;84.84
10978;BME280;5542;48.272;10.794;2023-07-16T03:54:13;95803.59;;;21.95;84.67
10978;BME280;5542;48.272;10.794;2023-07-16T03:56:39;95804.59;;;21.99;84.14
10978;BME280;5542;48.272;10.794;2023-07-16T03:59:06;95794.16;;;21.98;84.44
10978;BME280;5542;48.272;10.794;2023-07-16T04:01:32;95807.56;;;21.98;84.43
10978;BME280;5542;48.272;10.794;2023-07-16T04:04:00;95815.00;;;22.01;83.47
10978;BME280;5542;48.272;10.794;2023-07-16T04:06:27;95807.28;;;21.99;82.93
10978;BME280;5542;48.272;10.794;2023-07-16T04:08:54;95811.84;;;21.99;82.40
10978;BME280;5542;48.272;10.794;2023-07-16T04:11:20;95820.88;;;21.89;82.75
10978;BME280;5542;48.272;10.794;2023-07-16T04:13:47;95824.81;;;21.92;82.58
10978;BME280;5542;48.272;10.794;2023-07-16T04:16:13;95815.69;;;21.93;81.62
10978;BME280;5542;48.272;10.794;2023-07-16T04:18:40;95822.34;;;21.82;82.57
10978;BME280;5542;48.272;10.794;2023-07-16T04:21:08;95834.34;;;21.70;82.85
10978;BME280;5542;48.272;10.794;2023-07-16T04:23:35;95839.56;;;21.62;83.89
10978;BME280;5542;48.272;10.794;2023-07-16T04:26:02;95842.94;;;21.67;83.65
10978;BME280;5542;48.272;10.794;2023-07-16T04:28:28;95846.41;;;21.68;83.02
10978;BME280;5542;48.272;10.794;2023-07-16T04:30:55;95842.63;;;21.69;83.18
10978;BME280;5542;48.272;10.794;2023-07-16T04:33:21;95837.81;;;21.71;83.75
10978;BME280;5542;48.272;10.794;2023-07-16T04:35:48;95839.97;;;21.69;83.33
10978;BME280;5542;48.272;10.794;2023-07-16T04:38:16;95839.09;;;21.73;83.62
10978;BME280;5542;48.272;10.794;2023-07-16T04:40:43;95840.47;;;21.71;83.03
10978;BME280;5542;48.272;10.794;2023-07-16T04:43:09;95846.03;;;21.75;81.86
10978;BME280;5542;48.272;10.794;2023-07-16T04:45:36;95848.63;;;21.80;80.38
10978;BME280;5542;48.272;10.794;2023-07-16T04:48:04;95849.50;;;21.75;80.32
10978;BME280;5542;48.272;10.794;2023-07-16T04:50:31;95849.31;;;21.71;80.29
10978;BME280;5542;48.272;10.794;2023-07-16T04:52:57;95849.09;;;21.68;79.23
10978;BME280;5542;48.272;10.794;2023-07-16T04:55:25;95846.09;;;21.69;79.60
10978;BME280;5542;48.272;10.794;2023-07-16T04:57:52;95853.06;;;21.70;78.98
10978;BME280;5542;48.272;10.794;2023-07-16T05:00:19;95862.88;;;21.61;79.67
10978;BME280;5542;48.272;10.794;2023-07-16T05:02:46;95860.19;;;21.61;79.63
10978;BME280;5542;48.272;10.794;2023-07-16T05:05:13;95864.25;;;21.59;79.28
10978;BME280;5542;48.272;10.794;2023-07-16T05:07:39;95866.13;;;21.58;79.12
10978;BME280;5542;48.272;10.794;2023-07-16T05:10:07;95863.66;;;21.62;79.33
10978;BME280;5542;48.272;10.794;2023-07-16T05:12:35;95865.47;;;21.66;78.93
10978;BME280;5542;48.272;10.794;2023-07-16T05:15:02;95866.81;;;21.64;78.64
10978;BME280;5542;48.272;10.794;2023-07-16T05:17:28;95858.69;;;21.55;79.11
10978;BME280;5542;48.272;10.794;2023-07-16T05:19:55;95865.28;;;21.77;76.82
10978;BME280;5542;48.272;10.794;2023-07-16T05:22:21;95870.00;;;21.66;77.40
10978;BME280;5542;48.272;10.794;2023-07-16T05:24:48;95876.25;;;21.61;78.22
10978;BME280;5542;48.272;10.794;2023-07-16T05:27:15;95877.66;;;21.72;78.02
10978;BME280;5542;48.272;10.794;2023-07-16T05:29:43;95886.25;;;21.69;77.69
10978;BME280;5542;48.272;10.794;2023-07-16T05:32:09;95885.38;;;21.60;78.08
10978;BME280;5542;48.272;10.794;2023-07-16T05:34:36;95891.69;;;21.64;77.79
10978;BME280;5542;48.272;10.794;2023-07-16T05:37:03;95893.63;;;21.45;79.04
10978;BME280;5542;48.272;10.794;2023-07-16T05:39:29;95892.84;;;21.44;78.56
10978;BME280;5542;48.272;10.794;2023-07-16T05:41:56;95897.78;;;21.37;79.30
10978;BME280;5542;48.272;10.794;2023-07-16T05:44:22;95895.59;;;21.39;79.35
10978;BME280;5542;48.272;10.794;2023-07-16T05:46:50;95906.31;;;21.39;80.36
10978;BME280;5542;48.272;10.794;2023-07-16T05:49:17;95907.00;;;21.45;79.83
10978;BME280;5542;48.272;10.794;2023-07-16T05:51:43;95917.72;;;21.45;79.28
10978;BME280;5542;48.272;10.794;2023-07-16T05:54:10;95921.09;;;21.37;80.62
10978;BME280;5542;48.272;10.794;2023-07-16T05:56:37;95922.94;;;21.36;79.81
10978;BME280;5542;48.272;10.794;2023-07-16T05:59:03;95932.66;;;21.32;80.43
10978;BME280;5542;48.272;10.794;2023-07-16T06:01:30;95926.34;;;21.23;81.00
10978;BME280;5542;48.272;10.794;2023-07-16T06:03:58;95935.72;;;21.20;81.74
10978;BME280;5542;48.272;10.794;2023-07-16T06:06:26;95930.91;;;21.22;82.10
10978;BME280;5542;48.272;10.794;2023-07-16T06:08:52;95924.81;;;21.17;81.90
10978;BME280;5542;48.272;10.794;2023-07-16T06:11:19;95931.84;;;21.13;81.62
10978;BME280;5542;48.272;10.794;2023-07-16T06:13:46;95938.25;;;21.12;82.47
10978;BME280;5542;48.272;10.794;2023-07-16T06:16:12;95933.22;;;21.10;80.05
10978;BME280;5542;48.272;10.794;2023-07-16T06:18:39;95922.59;;;21.05;79.47
10978;BME280;5542;48.272;10.794;2023-07-16T06:21:07;95922.28;;;20.88;80.14
10978;BME280;5542;48.272;10.794;2023-07-16T06:23:33;95934.59;;;20.89;77.33
10978;BME280;5542;48.272;10.794;2023-07-16T06:26:00;95945.91;;;20.81;79.08
10978;BME280;5542;48.272;10.794;2023-07-16T06:28:26;95948.59;;;20.81;78.49
10978;BME280;5542;48.272;10.794;2023-07-16T06:30:53;95950.69;;;20.84;76.73
10978;BME280;5542;48.272;10.794;2023-07-16T06:33:20;95951.66;;;20.69;77.08
10978;BME280;5542;48.272;10.794;2023-07-16T06:35:47;95951.06;;;20.53;76.99
10978;BME280;5542;48.272;10.794;2023-07-16T06:38:15;95945.22;;;20.51;77.40
10978;BME280;5542;48.272;10.794;2023-07-16T06:40:46;95949.78;;;20.45;77.14
10978;BME280;5542;48.272;10.794;2023-07-16T06:43:13;95953.59;;;20.39;77.92
10978;BME280;5542;48.272;10.794;2023-07-16T06:45:40;95953.53;;;20.44;77.17
10978;BME280;5542;48.272;10.794;2023-07-16T06:48:06;95963.25;;;20.35;76.92
10978;BME280;5542;48.272;10.794;2023-07-16T06:50:33;95965.38;;;20.38;76.47
10978;BME280;5542;48.272;10.794;2023-07-16T06:53:00;95966.84;;;20.26;75.71
10978;BME280;5542;48.272;10.794;2023-07-16T06:55:28;95971.22;;;20.16;76.77
10978;BME280;5542;48.272;10.794;2023-07-16T06:57:54;95957.63;;;20.13;77.61
10978;BME280;5542;48.272;10.794;2023-07-16T07:00:21;95948.38;;;20.05;78.25
10978;BME280;5542;48.272;10.794;2023-07-16T07:02:47;95948.69;;;19.99;78.34
10978;BME280;5542;48.272;10.794;2023-07-16T07:05:14;95938.84;;;19.99;78.55
10978;BME280;5542;48.272;10.794;2023-07-16T07:07:41;95941.16;;;20.06;78.52
10978;BME280;5542;48.272;10.794;2023-07-16T07:10:09;95959.50;;;20.12;78.18
10978;BME280;5542;48.272;10.794;2023-07-16T07:12:37;95959.34;;;20.28;78.30
10978;BME280;5542;48.272;10.794;2023-07-16T07:15:04;95945.53;;;20.20;77.93
10978;BME280;5542;48.272;10.794;2023-07-16T07:17:31;95938.00;;;19.99;78.49
10978;BME280;5542;48.272;10.794;2023-07-16T07:19:57;95947.91;;;19.98;79.01
10978;BME280;5542;48.272;10.794;2023-07-16T07:22:24;95957.41;;;20.09;79.05
10978;BME280;5542;48.272;10.794;2023-07-16T07:24:50;95954.63;;;20.19;77.47
10978;BME280;5542;48.272;10.794;2023-07-16T07:27:17;95963.09;;;20.27;76.45
10978;BME280;5542;48.272;10.794;2023-07-16T07:29:45;95969.94;;;20.38;75.56
10978;BME280;5542;48.272;10.794;2023-07-16T07:32:17;95960.88;;;20.34;75.82
10978;BME280;5542;48.272;10.794;2023-07-16T07:34:43;95954.81;;;20.28;76.71
10978;BME280;5542;48.272;10.794;2023-07-16T07:37:10;95947.91;;;20.22;77.33
10978;BME280;5542;48.272;10.794;2023-07-16T07:39:36;95948.94;;;20.26;77.63
10978;BME280;5542;48.272;10.794;2023-07-16T07:42:03;95949.34;;;20.38;76.85
10978;BME280;5542;48.272;10.794;2023-07-16T07:44:30;95940.44;;;20.48;76.94
10978;BME280;5542;48.272;10.794;2023-07-16T07:46:58;95930.00;;;20.52;76.54
10978;BME280;5542;48.272;10.794;2023-07-16T07:49:24;95920.28;;;20.80;77.30
10978;BME280;5542;48.272;10.794;2023-07-16T07:51:51;95921.25;;;21.21;74.98
10978;BME280;5542;48.272;10.794;2023-07-16T07:54:18;95933.16;;;21.34;74.96
10978;BME280;5542;48.272;10.794;2023-07-16T07:56:45;95921.56;;;21.71;73.49
10978;BME280;5542;48.272;10.794;2023-07-16T07:59:12;95927.41;;;21.73;73.11
10978;BME280;5542;48.272;10.794;2023-07-16T08:01:38;95931.75;;;21.69;72.19
10978;BME280;5542;48.272;10.794;2023-07-16T08:04:06;95934.06;;;21.76;69.67
10978;BME280;5542;48.272;10.794;2023-07-16T08:06:33;95933.84;;;21.72;70.03
10978;BME280;5542;48.272;10.794;2023-07-16T08:09:00;95933.47;;;21.65;68.98
10978;BME280;5542;48.272;10.794;2023-07-16T08:11:26;95923.50;;;21.52;71.35
10978;BME280;5542;48.272;10.794;2023-07-16T08:13:53;95920.78;;;21.71;71.84
10978;BME280;5542;48.272;10.794;2023-07-16T08:16:19;95923.06;;;21.78;70.17
10978;BME280;5542;48.272;10.794;2023-07-16T08:18:46;95918.72;;;21.82;70.75
10978;BME280;5542;48.272;10.794;2023-07-16T08:21:14;95921.47;;;21.77;70.81
10978;BME280;5542;48.272;10.794;2023-07-16T08:23:45;95923.16;;;21.72;69.60
10978;BME280;5542;48.272;10.794;2023-07-16T08:26:12;95924.44;;;21.61;71.57
10978;BME280;5542;48.272;10.794;2023-07-16T08:28:38;95933.06;;;21.72;70.55
10978;BME280;5542;48.272;10.794;2023-07-16T08:31:05;95928.09;;;21.65;69.53
10978;BME280;5542;48.272;10.794;2023-07-16T08:33:32;95930.97;;;21.69;69.23
10978;BME280;5542;48.272;10.794;2023-07-16T08:35:58;95931.97;;;21.73;67.52
10978;BME280;5542;48.272;10.794;2023-07-16T08:38:26;95934.38;;;21.88;67.88
10978;BME280;5542;48.272;10.794;2023-07-16T08:40:53;95935.28;;;21.97;67.95
10978;BME280;5542;48.272;10.794;2023-07-16T08:43:20;95938.97;;;22.02;66.12
10978;BME280;5542;48.272;10.794;2023-07-16T08:45:48;95942.06;;;22.09;66.97
10978;BME280;5542;48.272;10.794;2023-07-16T08:48:16;95947.63;;;22.12;68.54
10978;BME280;5542;48.272;10.794;2023-07-16T08:50:45;95941.59;;;22.34;69.11
10978;BME280;5542;48.272;10.794;2023-07-16T08:53:15;95946.56;;;22.68;65.19
10978;BME280;5542;48.272;10.794;2023-07-16T08:55:43;95953.47;;;22.83;63.43
10978;BME280;5542;48.272;10.794;2023-07-16T08:58:11;95951.63;;;22.84;64.43
10978;BME280;5542;48.272;10.794;2023-07-16T09:00:39;95944.75;;;22.91;62.19
10978;BME280;5542;48.272;10.794;2023-07-16T09:03:06;95948.84;;;22.89;63.24
10978;BME280;5542;48.272;10.794;2023-07-16T09:05:34;95938.28;;;22.79;65.43
10978;BME280;5542;48.272;10.794;2023-07-16T09:08:01;95937.31;;;22.88;63.01
10978;BME280;5542;48.272;10.794;2023-07-16T09:10:29;95933.31;;;22.99;61.96
10978;BME280;5542;48.272;10.794;2023-07-16T09:12:58;95933.53;;;23.03;63.40
10978;BME280;5542;48.272;10.794;2023-07-16T09:15:26;95930.59;;;23.13;61.40
10978;BME280;5542;48.272;10.794;2023-07-16T09:17:54;95921.41;;;22.92;61.53
10978;BME280;5542;48.272;10.794;2023-07-16T09:20:21;95932.22;;;22.87;62.44
10978;BME280;5542;48.272;10.794;2023-07-16T09:22:49;95935.59;;;22.79;62.95
10978;BME280;5542;48.272;10.794;2023-07-16T09:25:16;95940.19;;;22.92;66.41
10978;BME280;5542;48.272;10.794;2023-07-16T09:27:42;95935.59;;;23.06;64.43
10978;BME280;5542;48.272;10.794;2023-07-16T09:30:15;95929.22;;;23.02;65.21
10978;BME280;5542;48.272;10.794;2023-07-16T09:32:42;95916.69;;;23.11;64.99
10978;BME280;5542;48.272;10.794;2023-07-16T09:35:10;95911.81;;;23.36;66.11
10978;BME280;5542;48.272;10.794;2023-07-16T09:37:37;95916.50;;;23.66;67.17
10978;BME280;5542;48.272;10.794;2023-07-16T09:40:04;95922.50;;;23.94;65.85
10978;BME280;5542;48.272;10.794;2023-07-16T09:42:34;95937.75;;;24.16;60.21
10978;BME280;5542;48.272;10.794;2023-07-16T09:45:03;95936.47;;;24.36;58.42
10978;BME280;5542;48.272;10.794;2023-07-16T09:47:32;95929.53;;;24.13;57.53
10978;BME280;5542;48.272;10.794;2023-07-16T09:49:59;95927.53;;;23.96;59.74
10978;BME280;5542;48.272;10.794;2023-07-16T09:52:26;95923.19;;;24.09;59.42
10978;BME280;5542;48.272;10.794;2023-07-16T09:54:55;95918.94;;;24.16;60.37
10978;BME280;5542;48.272;10.794;2023-07-16T09:57:23;95907.13;;;24.66;57.15
10978;BME280;5542;48.272;10.794;2023-07-16T09:59:52;95912.16;;;24.59;59.08
10978;BME280;5542;48.272;10.794;2023-07-16T10:02:20;95917.72;;;24.71;59.89
10978;BME280;5542;48.272;10.794;2023-07-16T10:04:49;95918.06;;;24.95;58.21
10978;BME280;5542;48.272;10.794;2023-07-16T10:07:20;95921.22;;;25.06;58.48
10978;BME280;5542;48.272;10.794;2023-07-16T10:09:51;95916.69;;;25.24;58.11
10978;BME280;5542;48.272;10.794;2023-07-16T10:12:20;95911.94;;;25.29;55.52
10978;BME280;5542;48.272;10.794;2023-07-16T10:14:47;95914.78;;;25.42;54.10
10978;BME280;5542;48.272;10.794;2023-07-16T10:17:16;95915.56;;;25.42;54.56
10978;BME280;5542;48.272;10.794;2023-07-16T10:19:54;95914.78;;;25.59;52.23
10978;BME280;5542;48.272;10.794;2023-07-16T10:22:31;95907.94;;;25.70;52.81
10978;BME280;5542;48.272;10.794;2023-07-16T10:24:58;95917.59;;;25.71;52.31
10978;BME280;5542;48.272;10.794;2023-07-16T10:27:30;95923.31;;;25.70;54.69
10978;BME280;5542;48.272;10.794;2023-07-16T10:29:58;95933.28;;;25.69;53.44
10978;BME280;5542;48.272;10.794;2023-07-16T10:32:27;95929.94;;;25.72;52.93
10978;BME280;5542;48.272;10.794;2023-07-16T10:34:55;95926.63;;;25.75;55.42
10978;BME280;5542;48.272;10.794;2023-07-16T10:37:22;95929.50;;;25.79;52.37
10978;BME280;5542;48.272;10.794;2023-07-16T10:39:51;95920.75;;;25.73;51.38
10978;BME280;5542;48.272;10.794;2023-07-16T10:42:19;95916.19;;;25.65;51.58
10978;BME280;5542;48.272;10.794;2023-07-16T10:44:48;95904.19;;;25.45;51.26
10978;BME280;5542;48.272;10.794;2023-07-16T10:47:20;95904.19;;;25.45;52.72
10978;BME280;5542;48.272;10.794;2023-07-16T10:49:47;95916.97;;;25.48;54.62
10978;BME280;5542;48.272;10.794;2023-07-16T10:52:15;95924.25;;;25.65;55.23
10978;BME280;5542;48.272;10.794;2023-07-16T10:54:42;95920.28;;;25.71;53.86
10978;BME280;5542;48.272;10.794;2023-07-16T10:57:10;95931.06;;;25.80;55.39
10978;BME280;5542;48.272;10.794;2023-07-16T10:59:37;95919.94;;;25.99;53.80
10978;BME280;5542;48.272;10.794;2023-07-16T11:02:05;95906.88;;;26.10;53.42
10978;BME280;5542;48.272;10.794;2023-07-16T11:04:34;95901.50;;;26.10;51.17
10978;BME280;5542;48.272;10.794;2023-07-16T11:07:04;95907.25;;;25.99;52.26
10978;BME280;5542;48.272;10.794;2023-07-16T11:09:33;95896.44;;;26.08;51.76
10978;BME280;5542;48.272;10.794;2023-07-16T11:12:05;95893.81;;;26.20;52.02
10978;BME280;5542;48.272;10.794;2023-07-16T11:14:32;95898.50;;;26.49;53.05
10978;BME280;5542;48.272;10.794;2023-07-16T11:17:03;95896.75;;;26.74;50.99
10978;BME280;5542;48.272;10.794;2023-07-16T11:19:30;95894.84;;;26.75;48.51
10978;BME280;5542;48.272;10.794;2023-07-16T11:21:57;95904.00;;;26.53;49.59
10978;BME280;5542;48.272;10.794;2023-07-16T11:24:24;95903.75;;;26.46;50.59
10978;BME280;5542;48.272;10.794;2023-07-16T11:26:54;95910.19;;;26.53;50.58
10978;BME280;5542;48.272;10.794;2023-07-16T11:29:22;95907.97;;;26.55;50.87
10978;BME280;5542;48.272;10.794;2023-07-16T11:31:49;95900.94;;;26.63;47.80
10978;BME280;5542;48.272;10.794;2023-07-16T11:34:16;95896.47;;;26.67;48.03
10978;BME280;5542;48.272;10.794;2023-07-16T11:36:43;95889.97;;;26.68;48.17
10978;BME280;5542;48.272;10.794;2023-07-16T11:39:10;95884.66;;;26.80;47.97
10978;BME280;5542;48.272;10.794;2023-07-16T11:41:37;95886.94;;;26.91;49.26
10978;BME280;5542;48.272;10.794;2023-07-16T11:44:07;95883.34;;;27.08;50.69
10978;BME280;5542;48.272;10.794;2023-07-16T11:46:34;95873.31;;;27.29;49.47
10978;BME280;5542;48.272;10.794;2023-07-16T11:49:02;95879.03;;;27.48;50.85
10978;BME280;5542;48.272;10.794;2023-07-16T11:51:29;95872.31;;;27.88;43.90
10978;BME280;5542;48.272;10.794;2023-07-16T11:53:56;95865.84;;;27.80;44.78
10978;BME280;5542;48.272;10.794;2023-07-16T11:56:23;95863.06;;;27.89;43.91
10978;BME280;5542;48.272;10.794;2023-07-16T11:58:49;95865.63;;;27.73;44.95
10978;BME280;5542;48.272;10.794;2023-07-16T12:01:17;95872.25;;;27.75;45.83
10978;BME280;5542;48.272;10.794;2023-07-16T12:03:44;95874.06;;;27.71;45.14
10978;BME280;5542;48.272;10.794;2023-07-16T12:06:10;95869.72;;;27.58;45.95
10978;BME280;5542;48.272;10.794;2023-07-16T12:08:37;95867.56;;;27.51;46.75
10978;BME280;5542;48.272;10.794;2023-07-16T12:11:04;95862.28;;;27.55;47.28
10978;BME280;5542;48.272;10.794;2023-07-16T12:13:30;95852.06;;;27.61;47.12
10978;BME280;5542;48.272;10.794;2023-07-16T12:15:57;95856.97;;;27.79;47.24
10978;BME280;5542;48.272;10.794;2023-07-16T12:18:25;95858.00;;;27.99;45.06
10978;BME280;5542;48.272;10.794;2023-07-16T12:20:52;95861.38;;;27.84;44.02
10978;BME280;5542;48.272;10.794;2023-07-16T12:23:19;95858.91;;;27.58;46.17
10978;BME280;5542;48.272;10.794;2023-07-16T12:25:45;95848.53;;;27.48;44.41
10978;BME280;5542;48.272;10.794;2023-07-16T12:28:12;95857.81;;;27.59;43.63
10978;BME280;5542;48.272;10.794;2023-07-16T12:30:39;95852.06;;;27.61;44.47
10978;BME280;5542;48.272;10.794;2023-07-16T12:33:05;95855.72;;;27.77;44.74
10978;BME280;5542;48.272;10.794;2023-07-16T12:35:33;95854.50;;;27.99;44.52
10978;BME280;5542;48.272;10.794;2023-07-16T12:38:00;95848.66;;;28.21;42.12
10978;BME280;5542;48.272;10.794;2023-07-16T12:40:29;95854.88;;;28.34;41.60
10978;BME280;5542;48.272;10.794;2023-07-16T12:42:56;95836.16;;;28.29;40.13
10978;BME280;5542;48.272;10.794;2023-07-16T12:45:22;95842.13;;;28.10;41.42
10978;BME280;5542;48.272;10.794;2023-07-16T12:47:49;95839.19;;;27.91;38.76
10978;BME280;5542;48.272;10.794;2023-07-16T12:50:16;95837.81;;;27.85;38.89
10978;BME280;5542;48.272;10.794;2023-07-16T12:52:44;95839.22;;;27.57;40.78
10978;BME280;5542;48.272;10.794;2023-07-16T12:55:10;95843.16;;;27.60;41.05
10978;BME280;5542;48.272;10.794;2023-07-16T12:57:38;95837.69;;;27.81;39.69
10978;BME280;5542;48.272;10.794;2023-07-16T13:00:06;95843.47;;;27.79;41.49